Brookston, Texas
Current Conditions -  °F | °C
As of 11:55 AM on Thursday 30 Oct 2014 (Local Time) from KPRX Reporting Station
Clear Clear  
Wind Chill: 68°   Ceiling: Unl
Heat Index: 68°   Visibility: 10mi
Dew Point: 43°   Wind: 10mph
Humidity: 40%   Direction: 190°S
Pressure: 30.17"   Gusts: NA
Location:  33.62°N, 95.7°W
Report Text: KPRX 301655Z 19009KT 10SM CLR 20/06 A3017 RMK AO1
Loading
Personal Weather Stations






























Interactive Weather Map
Tropical Storm Tracking
New forecast layout! Learn more

10-Day Weather Forecast

Advertisements
Track Severe Weather on mobile